Time;durP1;ratioP1;P1;durP2;ratioP2;P2;SDS_P1;SDS_P2;PMS_P1;PMS_P2;Temp;Humidity;BMP_temperature;BMP_pressure;BME280_temperature;BME280_humidity;BME280_pressure;Samples;Min_cycle;Max_cycle;Signal;HPM_P1;HPM_P2
2022/09/10 00:01:06;;;;;;;24.10;13.98;;;;;;;;;;4382337;32;20364;-64
2022/09/10 00:03:31;;;;;;;20.67;13.75;;;;;;;;;;4376171;32;20081;-64
2022/09/10 00:05:56;;;;;;;29.30;14.32;;;;;;;;;;4377744;32;20101;-64
2022/09/10 00:08:21;;;;;;;23.48;14.68;;;;;;;;;;4377732;32;20432;-64
2022/09/10 00:10:48;;;;;;;21.25;13.65;;;;;;;;;;4375275;32;20523;-63
2022/09/10 00:13:15;;;;;;;20.62;12.35;;;;;;;;;;4374866;32;20019;-63
2022/09/10 00:15:41;;;;;;;19.65;12.68;;;;;;;;;;4368900;32;20031;-63
2022/09/10 00:18:08;;;;;;;25.15;13.60;;;;;;;;;;4363583;32;20053;-64
2022/09/10 00:20:33;;;;;;;20.77;12.02;;;;;;;;;;4376541;32;20027;-64
2022/09/10 00:22:59;;;;;;;21.05;11.90;;;;;;;;;;4374803;32;20156;-64
2022/09/10 00:25:27;;;;;;;15.73;10.75;;;;;;;;;;4361188;32;20124;-63
2022/09/10 00:27:53;;;;;;;19.50;11.43;;;;;;;;;;4389161;32;20046;-64
2022/09/10 00:30:19;;;;;;;12.97;8.10;;;;;;;;;;4392323;32;20393;-63
2022/09/10 00:32:45;;;;;;;15.25;7.22;;;;;;;;;;4376662;32;20634;-63
2022/09/10 00:35:11;;;;;;;10.15;6.43;;;;;;;;;;4390351;32;20031;-63
2022/09/10 00:37:36;;;;;;;11.18;5.78;;;;;;;;;;4388236;32;20052;-63
2022/09/10 00:40:01;;;;;;;9.80;6.40;;;;;;;;;;4383960;32;20431;-63
2022/09/10 00:42:27;;;;;;;12.00;6.22;;;;;;;;;;4378997;32;20057;-64
2022/09/10 00:44:57;;;;;;;10.80;5.82;;;;;;;;;;4383674;32;20058;-63
2022/09/10 00:47:25;;;;;;;13.15;7.12;;;;;;;;;;4380630;32;20023;-63
2022/09/10 00:50:00;;;;;;;10.48;6.37;;;;;;;;;;4377224;32;20026;-63
2022/09/10 00:52:27;;;;;;;9.60;6.25;;;;;;;;;;4384169;32;20092;-64
2022/09/10 00:54:53;;;;;;;9.35;5.37;;;;;;;;;;4389971;32;20065;-64
2022/09/10 00:57:20;;;;;;;8.60;5.30;;;;;;;;;;4391268;32;20031;-64
2022/09/10 00:59:47;;;;;;;8.55;5.22;;;;;;;;;;4390935;32;20077;-64
2022/09/10 01:02:13;;;;;;;10.27;5.55;;;;;;;;;;4387636;32;20049;-64
2022/09/10 01:04:39;;;;;;;10.13;3.60;;;;;;;;;;4378823;32;20031;-64
2022/09/10 01:07:05;;;;;;;11.00;4.53;;;;;;;;;;4391415;32;20125;-63
2022/09/10 01:09:30;;;;;;;9.85;4.07;;;;;;;;;;4385670;32;20065;-64
2022/09/10 01:12:15;;;;;;;6.15;2.97;;;;;;;;;;4370476;32;20074;-64
2022/09/10 01:14:50;;;;;;;7.12;3.72;;;;;;;;;;4371642;32;20043;-64
2022/09/10 01:17:20;;;;;;;10.23;3.83;;;;;;;;;;4371639;32;20464;-65
2022/09/10 01:19:45;;;;;;;9.27;4.50;;;;;;;;;;4371404;32;20128;-64
2022/09/10 01:22:26;;;;;;;6.57;4.45;;;;;;;;;;4373528;32;20030;-64
2022/09/10 01:25:03;;;;;;;9.02;5.35;;;;;;;;;;4370090;32;20054;-64
2022/09/10 01:27:40;;;;;;;11.35;7.00;;;;;;;;;;4374798;32;20070;-63
2022/09/10 01:30:05;;;;;;;;;;;;;;;;;;4362983;32;20066;-63
2022/09/10 01:32:34;;;;;;;9.43;7.87;;;;;;;;;;4375220;32;20002;-63
2022/09/10 01:35:06;;;;;;;13.48;9.95;;;;;;;;;;4369763;32;20139;-64
2022/09/10 01:37:34;;;;;;;18.52;11.18;;;;;;;;;;4369934;32;20097;-65
2022/09/10 01:39:59;;;;;;;20.20;12.48;;;;;;;;;;4384310;32;20110;-64
2022/09/10 01:42:25;;;;;;;21.00;13.80;;;;;;;;;;4389810;32;20108;-64
2022/09/10 01:44:51;;;;;;;19.12;13.43;;;;;;;;;;4374653;32;20034;-64
2022/09/10 01:47:19;;;;;;;19.98;13.85;;;;;;;;;;4391380;32;20030;-64
2022/09/10 01:50:03;;;;;;;23.27;14.68;;;;;;;;;;4391471;32;20121;-64
2022/09/10 01:52:48;;;;;;;27.15;15.85;;;;;;;;;;4392649;32;20056;-64
2022/09/10 01:55:26;;;;;;;26.42;16.70;;;;;;;;;;4393169;32;20137;-65
2022/09/10 01:57:56;;;;;;;28.42;17.20;;;;;;;;;;4391707;32;20084;-65
2022/09/10 02:00:23;;;;;;;25.23;17.25;;;;;;;;;;4393246;32;20069;-64
2022/09/10 02:02:52;;;;;;;33.05;20.40;;;;;;;;;;4391826;32;20097;-64
2022/09/10 02:05:19;;;;;;;22.55;17.30;;;;;;;;;;4378356;32;20053;-64
2022/09/10 02:07:45;;;;;;;36.13;19.45;;;;;;;;;;4392887;32;20089;-64
2022/09/10 02:10:10;;;;;;;34.42;20.73;;;;;;;;;;4392369;32;20034;-65
2022/09/10 02:12:35;;;;;;;28.12;19.45;;;;;;;;;;4392749;32;20435;-66
2022/09/10 02:15:01;;;;;;;29.55;19.70;;;;;;;;;;4393041;32;20409;-65
2022/09/10 02:17:32;;;;;;;37.60;21.85;;;;;;;;;;4391372;32;20061;-66
2022/09/10 02:19:58;;;;;;;39.63;24.33;;;;;;;;;;4395102;32;20068;-66
2022/09/10 02:22:24;;;;;;;36.30;23.27;;;;;;;;;;4393630;32;20026;-66
2022/09/10 02:24:49;;;;;;;32.63;21.87;;;;;;;;;;4392478;32;20084;-66
2022/09/10 02:27:15;;;;;;;31.77;18.52;;;;;;;;;;4390258;32;20066;-65
2022/09/10 02:29:40;;;;;;;26.80;17.90;;;;;;;;;;4391576;32;20053;-66
2022/09/10 02:32:07;;;;;;;27.17;19.15;;;;;;;;;;4393889;32;20034;-65
2022/09/10 02:34:33;;;;;;;29.60;14.77;;;;;;;;;;4391348;32;20367;-65
2022/09/10 02:36:58;;;;;;;27.48;17.45;;;;;;;;;;4391739;32;20023;-64
2022/09/10 02:39:23;;;;;;;23.55;14.93;;;;;;;;;;4397440;32;20073;-65
2022/09/10 02:41:48;;;;;;;25.37;15.02;;;;;;;;;;4389268;32;20030;-66
2022/09/10 02:44:14;;;;;;;23.87;13.70;;;;;;;;;;4389597;32;20123;-65
2022/09/10 02:46:39;;;;;;;28.95;14.93;;;;;;;;;;4388945;32;20031;-65
2022/09/10 02:49:08;;;;;;;26.80;14.10;;;;;;;;;;4390549;32;20473;-64
2022/09/10 02:51:35;;;;;;;18.58;15.20;;;;;;;;;;4393788;32;20027;-64
2022/09/10 02:54:00;;;;;;;24.15;15.27;;;;;;;;;;4379307;32;20041;-64
2022/09/10 02:56:26;;;;;;;25.17;16.52;;;;;;;;;;4391593;32;20393;-64
2022/09/10 02:58:51;;;;;;;28.83;20.75;;;;;;;;;;4391793;32;20027;-65
2022/09/10 03:01:18;;;;;;;31.23;22.40;;;;;;;;;;4406635;32;20555;-65
2022/09/10 03:03:47;;;;;;;32.15;23.70;;;;;;;;;;4396572;32;20042;-65
2022/09/10 03:06:12;;;;;;;32.95;24.60;;;;;;;;;;4393420;32;20092;-64
2022/09/10 03:08:37;;;;;;;36.03;25.95;;;;;;;;;;4393338;32;20026;-66
2022/09/10 03:11:03;;;;;;;34.63;26.02;;;;;;;;;;4392423;32;20358;-65
2022/09/10 03:13:28;;;;;;;41.20;26.02;;;;;;;;;;4392465;32;20049;-65
2022/09/10 03:15:54;;;;;;;40.00;25.83;;;;;;;;;;4390970;32;20096;-65
2022/09/10 03:18:21;;;;;;;33.55;24.23;;;;;;;;;;4392329;32;20145;-64
2022/09/10 03:20:46;;;;;;;35.58;23.70;;;;;;;;;;4391909;32;20027;-64
2022/09/10 03:23:12;;;;;;;32.85;27.00;;;;;;;;;;4390975;32;20083;-64
2022/09/10 03:25:37;;;;;;;40.58;25.35;;;;;;;;;;4394887;32;20038;-63
2022/09/10 03:28:02;;;;;;;28.55;22.55;;;;;;;;;;4391039;32;20023;-64
2022/09/10 03:30:28;;;;;;;36.53;23.17;;;;;;;;;;4390689;32;20155;-63
2022/09/10 03:32:53;;;;;;;34.05;22.05;;;;;;;;;;4392670;32;20077;-65
2022/09/10 03:35:18;;;;;;;30.48;18.95;;;;;;;;;;4387394;32;20038;-65
2022/09/10 03:37:44;;;;;;;35.75;20.65;;;;;;;;;;4390763;32;20058;-64
2022/09/10 03:40:09;;;;;;;30.25;17.67;;;;;;;;;;4392398;32;20057;-64
2022/09/10 03:42:35;;;;;;;31.27;17.35;;;;;;;;;;4393122;32;20061;-64
2022/09/10 03:45:00;;;;;;;30.48;16.92;;;;;;;;;;4377287;32;20068;-65
2022/09/10 03:47:25;;;;;;;24.17;13.70;;;;;;;;;;4389596;32;20023;-65
2022/09/10 03:49:51;;;;;;;23.35;12.98;;;;;;;;;;4390884;32;20031;-64
2022/09/10 03:52:16;;;;;;;22.27;13.17;;;;;;;;;;4390382;32;20030;-64
2022/09/10 03:54:41;;;;;;;19.65;10.65;;;;;;;;;;4391040;32;20123;-64
2022/09/10 03:57:07;;;;;;;20.92;11.15;;;;;;;;;;4391089;32;20023;-65
2022/09/10 03:59:32;;;;;;;20.85;9.90;;;;;;;;;;4377752;32;20053;-63
2022/09/10 04:01:58;;;;;;;18.62;9.82;;;;;;;;;;4390108;32;20430;-64
2022/09/10 04:04:23;;;;;;;17.20;8.57;;;;;;;;;;4391158;32;20026;-63
2022/09/10 04:06:50;;;;;;;16.83;8.15;;;;;;;;;;4391972;32;20086;-62
2022/09/10 04:09:15;;;;;;;18.55;7.90;;;;;;;;;;4390272;32;20038;-63
2022/09/10 04:11:41;;;;;;;14.37;7.73;;;;;;;;;;4389665;32;20022;-63
2022/09/10 04:14:06;;;;;;;20.62;7.87;;;;;;;;;;4391710;32;20118;-63
2022/09/10 04:16:31;;;;;;;15.82;6.75;;;;;;;;;;4389814;32;20074;-63
2022/09/10 04:18:56;;;;;;;17.15;7.50;;;;;;;;;;4391537;32;20022;-63
2022/09/10 04:21:23;;;;;;;14.02;7.18;;;;;;;;;;4390607;32;20030;-63
2022/09/10 04:23:52;;;;;;;15.98;7.53;;;;;;;;;;4387847;32;20023;-63
2022/09/10 04:26:17;;;;;;;19.52;7.53;;;;;;;;;;4391909;32;20360;-64
2022/09/10 04:28:43;;;;;;;19.42;6.32;;;;;;;;;;4391055;32;20053;-63
2022/09/10 04:31:08;;;;;;;14.87;7.35;;;;;;;;;;4391363;32;20083;-63
2022/09/10 04:33:33;;;;;;;14.18;6.95;;;;;;;;;;4390701;32;20046;-63
2022/09/10 04:36:01;;;;;;;19.12;7.45;;;;;;;;;;4390215;32;20061;-63
2022/09/10 04:38:31;;;;;;;21.95;7.90;;;;;;;;;;4389079;32;20061;-63
2022/09/10 04:40:57;;;;;;;20.52;7.57;;;;;;;;;;4389918;32;20107;-63
2022/09/10 04:43:23;;;;;;;17.02;7.68;;;;;;;;;;4390599;32;20105;-64
2022/09/10 04:45:48;;;;;;;11.63;8.02;;;;;;;;;;4389153;32;20049;-63
2022/09/10 04:48:13;;;;;;;15.50;6.60;;;;;;;;;;4390668;32;20018;-63
2022/09/10 04:50:39;;;;;;;17.15;6.32;;;;;;;;;;4389342;32;20057;-64
2022/09/10 04:53:06;;;;;;;18.67;6.70;;;;;;;;;;4390507;32;20272;-64
2022/09/10 04:55:32;;;;;;;17.80;7.05;;;;;;;;;;4388956;32;20072;-63
2022/09/10 04:57:57;;;;;;;19.12;7.37;;;;;;;;;;4390711;32;20045;-64
2022/09/10 05:00:22;;;;;;;18.53;7.97;;;;;;;;;;4389993;32;20030;-63
2022/09/10 05:02:48;;;;;;;24.20;8.77;;;;;;;;;;4390386;32;20438;-63
2022/09/10 05:05:13;;;;;;;18.00;9.10;;;;;;;;;;4388724;32;20050;-63
2022/09/10 05:07:38;;;;;;;25.17;9.18;;;;;;;;;;4390780;32;20068;-63
2022/09/10 05:10:04;;;;;;;16.15;9.15;;;;;;;;;;4392369;32;20121;-63
2022/09/10 05:12:30;;;;;;;21.42;10.38;;;;;;;;;;4390298;32;20087;-63
2022/09/10 05:14:55;;;;;;;26.77;9.85;;;;;;;;;;4390049;32;20111;-64
2022/09/10 05:17:20;;;;;;;23.77;10.93;;;;;;;;;;4391796;32;20455;-62
2022/09/10 05:19:45;;;;;;;27.70;11.87;;;;;;;;;;4389560;32;20049;-63
2022/09/10 05:22:10;;;;;;;23.60;11.27;;;;;;;;;;4387995;32;20554;-63
2022/09/10 05:24:36;;;;;;;20.30;11.63;;;;;;;;;;4391450;32;20171;-63
2022/09/10 05:27:01;;;;;;;26.48;12.23;;;;;;;;;;4389514;32;20027;-63
2022/09/10 05:29:26;;;;;;;20.15;10.43;;;;;;;;;;4389988;32;20026;-63
2022/09/10 05:31:51;;;;;;;23.90;11.98;;;;;;;;;;4375454;32;20099;-64
2022/09/10 05:34:16;;;;;;;25.42;10.98;;;;;;;;;;4390175;32;20038;-64
2022/09/10 05:36:41;;;;;;;27.50;12.20;;;;;;;;;;4390500;32;20037;-64
2022/09/10 05:39:07;;;;;;;26.20;11.60;;;;;;;;;;4390900;32;20164;-63
2022/09/10 05:41:32;;;;;;;21.95;11.80;;;;;;;;;;4391501;32;20023;-63
2022/09/10 05:43:57;;;;;;;26.45;12.52;;;;;;;;;;4389538;32;20419;-63
2022/09/10 05:46:23;;;;;;;20.75;12.60;;;;;;;;;;4398051;32;20134;-64
2022/09/10 05:48:48;;;;;;;30.05;12.90;;;;;;;;;;4392597;32;20042;-62
2022/09/10 05:51:13;;;;;;;27.40;13.68;;;;;;;;;;4389838;32;20435;-62
2022/09/10 05:53:40;;;;;;;22.25;13.05;;;;;;;;;;4400613;32;20027;-63
2022/09/10 05:56:06;;;;;;;28.70;14.02;;;;;;;;;;4391169;32;20091;-63
2022/09/10 05:58:33;;;;;;;22.50;13.20;;;;;;;;;;4389230;32;20035;-62
2022/09/10 06:00:58;;;;;;;29.83;14.27;;;;;;;;;;4391191;32;20061;-63
2022/09/10 06:03:23;;;;;;;25.88;13.25;;;;;;;;;;4389930;32;20031;-65
2022/09/10 06:05:50;;;;;;;26.85;13.32;;;;;;;;;;4390949;32;20405;-63
2022/09/10 06:08:15;;;;;;;24.65;14.43;;;;;;;;;;4388413;32;20108;-63
2022/09/10 06:10:41;;;;;;;23.17;14.35;;;;;;;;;;4389533;32;20027;-63
2022/09/10 06:13:06;;;;;;;25.42;14.52;;;;;;;;;;4388134;32;20084;-63
2022/09/10 06:15:33;;;;;;;28.23;15.40;;;;;;;;;;4390950;32;20110;-63
2022/09/10 06:17:58;;;;;;;25.42;15.68;;;;;;;;;;4390683;32;20404;-62
2022/09/10 06:20:24;;;;;;;31.02;17.12;;;;;;;;;;4389442;32;20116;-63
2022/09/10 06:22:50;;;;;;;25.75;14.68;;;;;;;;;;4385772;32;20031;-63
2022/09/10 06:25:16;;;;;;;20.73;15.35;;;;;;;;;;4389314;32;20039;-63
2022/09/10 06:27:41;;;;;;;24.08;13.00;;;;;;;;;;4388357;32;20377;-63
2022/09/10 06:30:06;;;;;;;25.95;15.63;;;;;;;;;;4390790;32;20123;-63
2022/09/10 06:32:31;;;;;;;22.62;12.10;;;;;;;;;;4389656;32;20471;-63
2022/09/10 06:34:56;;;;;;;22.25;12.32;;;;;;;;;;4391028;32;20038;-62
2022/09/10 06:37:23;;;;;;;25.60;11.90;;;;;;;;;;4386427;32;20415;-64
2022/09/10 06:39:48;;;;;;;21.23;11.20;;;;;;;;;;4384757;32;20042;-65
2022/09/10 06:42:13;;;;;;;34.55;13.02;;;;;;;;;;4390077;32;20462;-64
2022/09/10 06:44:38;;;;;;;24.73;11.43;;;;;;;;;;4393255;32;20135;-63
2022/09/10 06:47:04;;;;;;;20.80;10.70;;;;;;;;;;4391539;32;20093;-64
2022/09/10 06:49:30;;;;;;;19.73;9.70;;;;;;;;;;4371329;32;20413;-64
2022/09/10 06:51:55;;;;;;;19.87;9.10;;;;;;;;;;4393366;32;20099;-64
2022/09/10 06:54:20;;;;;;;18.08;8.93;;;;;;;;;;4391347;32;20022;-64
2022/09/10 06:56:47;;;;;;;16.60;8.67;;;;;;;;;;4387053;32;20446;-63
2022/09/10 06:59:17;;;;;;;14.80;7.87;;;;;;;;;;4391622;32;20118;-64
2022/09/10 07:01:42;;;;;;;21.33;8.57;;;;;;;;;;4392424;32;20061;-63
2022/09/10 07:04:08;;;;;;;13.55;8.05;;;;;;;;;;4403149;32;20078;-65
2022/09/10 07:06:34;;;;;;;18.83;6.45;;;;;;;;;;4379586;32;20443;-64
2022/09/10 07:08:59;;;;;;;18.02;7.82;;;;;;;;;;4389934;32;20043;-63
2022/09/10 07:11:25;;;;;;;12.15;6.25;;;;;;;;;;4389863;32;20054;-63
2022/09/10 07:13:51;;;;;;;10.80;5.37;;;;;;;;;;4391855;32;20035;-64
2022/09/10 07:16:17;;;;;;;12.45;5.37;;;;;;;;;;4391703;32;20068;-63
2022/09/10 07:18:42;;;;;;;11.05;5.25;;;;;;;;;;4391797;32;20129;-63
2022/09/10 07:21:08;;;;;;;18.27;5.68;;;;;;;;;;4393509;32;20023;-63
2022/09/10 07:23:34;;;;;;;13.68;5.10;;;;;;;;;;4392162;32;20412;-62
2022/09/10 07:26:03;;;;;;;9.05;5.03;;;;;;;;;;4392730;32;20079;-64
2022/09/10 07:28:28;;;;;;;11.20;4.78;;;;;;;;;;4374905;32;20335;-63
2022/09/10 07:30:54;;;;;;;11.90;5.30;;;;;;;;;;4381609;32;20493;-63
2022/09/10 07:33:19;;;;;;;10.45;5.37;;;;;;;;;;4393088;32;20042;-64
2022/09/10 07:35:44;;;;;;;8.93;4.25;;;;;;;;;;4389652;32;20495;-64
2022/09/10 07:38:13;;;;;;;9.83;4.47;;;;;;;;;;4397642;32;20022;-63
2022/09/10 07:40:39;;;;;;;12.82;4.57;;;;;;;;;;4405201;32;20172;-63
2022/09/10 07:43:05;;;;;;;7.05;4.75;;;;;;;;;;4406461;32;20049;-65
2022/09/10 07:45:31;;;;;;;8.98;5.72;;;;;;;;;;4396166;32;20082;-68
2022/09/10 07:47:56;;;;;;;8.82;4.10;;;;;;;;;;4405605;32;20038;-62
2022/09/10 07:50:21;;;;;;;10.38;4.18;;;;;;;;;;4392261;32;20069;-63
2022/09/10 07:52:47;;;;;;;13.07;4.68;;;;;;;;;;4391697;32;20026;-63
2022/09/10 07:55:13;;;;;;;10.95;3.53;;;;;;;;;;4396237;32;20053;-63
2022/09/10 07:57:38;;;;;;;9.32;3.92;;;;;;;;;;4391036;32;20034;-62
2022/09/10 08:00:11;;;;;;;10.70;3.90;;;;;;;;;;4389848;32;20383;-63
2022/09/10 08:02:37;;;;;;;12.63;4.37;;;;;;;;;;4389171;32;20034;-63
2022/09/10 08:05:03;;;;;;;8.52;3.80;;;;;;;;;;4387828;32;20096;-62
2022/09/10 08:07:30;;;;;;;9.55;3.03;;;;;;;;;;4387753;32;20084;-63
2022/09/10 08:09:55;;;;;;;9.60;3.00;;;;;;;;;;4390137;32;20454;-65
2022/09/10 08:12:20;;;;;;;6.18;2.83;;;;;;;;;;4391472;32;20042;-63
2022/09/10 08:14:46;;;;;;;14.68;11.10;;;;;;;;;;4391817;32;20039;-62
2022/09/10 08:17:11;;;;;;;17.87;13.70;;;;;;;;;;4376929;32;20101;-62
2022/09/10 08:19:36;;;;;;;19.37;14.98;;;;;;;;;;4390914;32;20439;-63
2022/09/10 08:22:02;;;;;;;21.30;16.87;;;;;;;;;;4391833;32;20075;-63
2022/09/10 08:24:27;;;;;;;24.95;19.02;;;;;;;;;;4390871;32;20056;-63
2022/09/10 08:26:53;;;;;;;26.52;20.05;;;;;;;;;;4391988;32;20023;-63
2022/09/10 08:29:18;;;;;;;27.52;20.12;;;;;;;;;;4403109;32;20030;-63
2022/09/10 08:31:43;;;;;;;24.85;18.92;;;;;;;;;;4390175;32;20026;-64
2022/09/10 08:34:10;;;;;;;22.98;20.52;;;;;;;;;;4390317;32;20388;-63
2022/09/10 08:36:38;;;;;;;22.42;19.98;;;;;;;;;;4379192;32;20447;-64
2022/09/10 08:39:03;;;;;;;24.52;20.70;;;;;;;;;;4383748;32;20357;-64
2022/09/10 08:41:41;;;;;;;24.60;20.05;;;;;;;;;;4390050;32;20049;-64
2022/09/10 08:44:22;;;;;;;26.08;20.90;;;;;;;;;;4376290;32;20394;-64
2022/09/10 08:46:54;;;;;;;28.98;22.95;;;;;;;;;;4390372;32;20023;-65
2022/09/10 08:49:39;;;;;;;32.33;26.05;;;;;;;;;;4389270;32;20026;-63
2022/09/10 08:52:20;;;;;;;32.17;26.77;;;;;;;;;;4376776;32;20377;-62
2022/09/10 08:54:54;;;;;;;31.10;26.37;;;;;;;;;;4401711;32;20080;-65
2022/09/10 08:57:24;;;;;;;28.38;25.30;;;;;;;;;;4404690;32;20056;-63
2022/09/10 08:59:51;;;;;;;27.37;24.37;;;;;;;;;;4398538;32;20027;-63
2022/09/10 09:02:31;;;;;;;28.08;25.20;;;;;;;;;;4388349;32;20033;-63
2022/09/10 09:05:01;;;;;;;26.87;24.08;;;;;;;;;;4372865;32;20030;-63
2022/09/10 09:07:30;;;;;;;29.50;23.00;;;;;;;;;;4389725;32;20035;-63
2022/09/10 09:09:55;;;;;;;24.42;21.73;;;;;;;;;;4384888;32;20147;-63
2022/09/10 09:12:27;;;;;;;24.80;22.15;;;;;;;;;;4388626;32;20046;-63
2022/09/10 09:15:04;;;;;;;25.73;20.20;;;;;;;;;;4389275;32;20046;-63
2022/09/10 09:17:48;;;;;;;20.65;18.65;;;;;;;;;;4389276;32;20356;-63
2022/09/10 09:20:17;;;;;;;17.55;14.30;;;;;;;;;;4388070;32;20057;-63
2022/09/10 09:22:42;;;;;;;15.68;12.77;;;;;;;;;;4390943;32;20030;-63
2022/09/10 09:25:16;;;;;;;13.07;11.60;;;;;;;;;;4402156;32;20049;-62
2022/09/10 09:27:41;;;;;;;19.10;12.52;;;;;;;;;;4391556;32;20038;-62
2022/09/10 09:30:18;;;;;;;13.03;9.93;;;;;;;;;;4389516;32;20050;-63
2022/09/10 09:32:44;;;;;;;11.40;10.25;;;;;;;;;;4391411;32;20126;-64
2022/09/10 09:35:31;;;;;;;13.05;10.07;;;;;;;;;;4389393;32;20022;-64
2022/09/10 09:38:16;;;;;;;11.45;9.82;;;;;;;;;;4389204;32;20378;-65
2022/09/10 09:40:44;;;;;;;13.95;10.52;;;;;;;;;;4383723;32;20043;-63
2022/09/10 09:43:14;;;;;;;13.27;9.95;;;;;;;;;;4389820;32;20055;-66
2022/09/10 09:45:44;;;;;;;10.60;9.48;;;;;;;;;;4389876;32;20022;-64
2022/09/10 09:48:14;;;;;;;10.10;8.48;;;;;;;;;;4389346;32;20048;-64
2022/09/10 09:50:41;;;;;;;12.45;8.80;;;;;;;;;;4389341;32;20022;-64
2022/09/10 09:53:06;;;;;;;8.15;6.22;;;;;;;;;;4390344;32;20065;-64
2022/09/10 09:55:34;;;;;;;9.25;6.32;;;;;;;;;;4404544;32;20026;-63
2022/09/10 09:58:19;;;;;;;9.88;6.32;;;;;;;;;;4391105;32;20042;-65
2022/09/10 10:00:46;;;;;;;8.52;6.00;;;;;;;;;;4390661;32;20056;-63
2022/09/10 10:03:20;;;;;;;6.68;5.97;;;;;;;;;;4390655;32;20436;-65
2022/09/10 10:05:47;;;;;;;9.50;6.55;;;;;;;;;;4406280;32;20085;-64
2022/09/10 10:08:24;;;;;;;8.88;7.32;;;;;;;;;;4401738;32;20050;-64
2022/09/10 10:10:50;;;;;;;9.00;8.10;;;;;;;;;;4392549;32;20412;-64
2022/09/10 10:13:22;;;;;;;10.95;8.30;;;;;;;;;;4392121;32;20058;-62
2022/09/10 10:15:47;;;;;;;11.15;8.40;;;;;;;;;;4392575;32;20136;-63
2022/09/10 10:18:22;;;;;;;10.38;8.60;;;;;;;;;;4393351;32;20033;-63
2022/09/10 10:21:07;;;;;;;10.48;8.20;;;;;;;;;;4392174;32;20049;-63
2022/09/10 10:23:36;;;;;;;10.32;7.47;;;;;;;;;;4393951;32;20057;-63
2022/09/10 10:26:21;;;;;;;8.02;7.22;;;;;;;;;;4392581;32;20118;-63
2022/09/10 10:28:47;;;;;;;7.47;6.75;;;;;;;;;;4391884;32;20052;-63
2022/09/10 10:31:13;;;;;;;10.18;7.65;;;;;;;;;;4379495;32;20035;-63
2022/09/10 10:33:44;;;;;;;9.43;6.93;;;;;;;;;;4377954;32;20421;-63
2022/09/10 10:36:24;;;;;;;8.70;6.97;;;;;;;;;;4393484;32;20380;-64
2022/09/10 10:39:12;;;;;;;9.85;6.47;;;;;;;;;;4391902;32;20056;-64
2022/09/10 10:41:44;;;;;;;9.02;5.68;;;;;;;;;;4393511;32;20057;-63
2022/09/10 10:44:15;;;;;;;6.95;5.60;;;;;;;;;;4393250;32;20342;-64
2022/09/10 10:46:40;;;;;;;10.65;6.53;;;;;;;;;;4379515;32;20038;-63
2022/09/10 10:49:24;;;;;;;7.43;6.22;;;;;;;;;;4391724;32;20061;-64
2022/09/10 10:52:02;;;;;;;8.15;6.62;;;;;;;;;;4379118;32;20356;-65
2022/09/10 10:54:46;;;;;;;8.10;7.28;;;;;;;;;;4377984;32;20027;-64
2022/09/10 10:57:29;;;;;;;10.70;9.13;;;;;;;;;;4376263;32;20054;-63
2022/09/10 11:00:03;;;;;;;11.18;10.05;;;;;;;;;;4377333;32;20030;-64
2022/09/10 11:02:32;;;;;;;11.18;7.68;;;;;;;;;;4377708;32;20053;-64
2022/09/10 11:05:00;;;;;;;8.55;5.65;;;;;;;;;;4377176;32;20043;-63
2022/09/10 11:07:31;;;;;;;8.48;5.80;;;;;;;;;;4385783;32;20058;-64
2022/09/10 11:10:11;;;;;;;6.53;5.37;;;;;;;;;;4405708;32;20022;-64
2022/09/10 11:12:59;;;;;;;5.07;4.55;;;;;;;;;;4406793;32;20038;-64
2022/09/10 11:15:27;;;;;;;6.50;4.53;;;;;;;;;;4400272;32;20349;-64
2022/09/10 11:18:06;;;;;;;5.55;3.85;;;;;;;;;;4407131;32;20091;-65
2022/09/10 11:20:33;;;;;;;5.32;3.45;;;;;;;;;;4406438;32;20030;-65
2022/09/10 11:23:17;;;;;;;5.22;3.58;;;;;;;;;;4395313;32;20030;-64
2022/09/10 11:25:53;;;;;;;6.07;4.53;;;;;;;;;;4391114;32;20087;-65
2022/09/10 11:28:22;;;;;;;7.10;4.90;;;;;;;;;;4391036;32;20428;-64
2022/09/10 11:30:52;;;;;;;10.05;5.55;;;;;;;;;;4392197;32;20390;-65
2022/09/10 11:33:17;;;;;;;6.50;4.28;;;;;;;;;;4377680;32;20026;-64
2022/09/10 11:35:55;;;;;;;6.95;4.45;;;;;;;;;;4391429;32;20076;-65
2022/09/10 11:38:24;;;;;;;5.97;4.32;;;;;;;;;;4391360;32;20058;-64
2022/09/10 11:40:54;;;;;;;8.65;4.70;;;;;;;;;;4398470;32;20082;-65
2022/09/10 11:43:36;;;;;;;5.85;4.55;;;;;;;;;;4392609;32;20432;-64
2022/09/10 11:46:07;;;;;;;5.72;4.37;;;;;;;;;;4392156;32;20026;-66
2022/09/10 11:48:36;;;;;;;6.47;4.60;;;;;;;;;;4400365;32;20049;-64
2022/09/10 11:51:06;;;;;;;7.25;4.53;;;;;;;;;;4406154;32;20427;-65
2022/09/10 11:53:32;;;;;;;6.22;4.32;;;;;;;;;;4406861;32;20017;-65
2022/09/10 11:56:03;;;;;;;5.30;4.43;;;;;;;;;;4405821;32;20042;-64
2022/09/10 11:58:47;;;;;;;7.93;3.70;;;;;;;;;;4392130;32;20050;-63
2022/09/10 12:01:25;;;;;;;6.03;4.20;;;;;;;;;;4391800;32;20052;-64
2022/09/10 12:03:57;;;;;;;5.82;4.07;;;;;;;;;;4397383;32;20030;-65
2022/09/10 12:06:31;;;;;;;5.55;4.15;;;;;;;;;;4376483;32;20027;-64
2022/09/10 12:09:10;;;;;;;6.87;4.10;;;;;;;;;;4376742;32;20087;-67
2022/09/10 12:11:41;;;;;;;7.37;4.43;;;;;;;;;;4390902;32;20038;-64
2022/09/10 12:14:07;;;;;;;6.68;4.70;;;;;;;;;;4406084;32;20049;-63
2022/09/10 12:16:56;;;;;;;11.50;4.97;;;;;;;;;;4405541;32;20030;-64
2022/09/10 12:19:25;;;;;;;7.10;4.43;;;;;;;;;;4399723;32;20026;-64
2022/09/10 12:21:52;;;;;;;5.50;4.30;;;;;;;;;;4393176;32;20387;-65
2022/09/10 12:24:32;;;;;;;6.72;4.35;;;;;;;;;;4405381;32;20025;-64
2022/09/10 12:26:58;;;;;;;8.48;4.05;;;;;;;;;;4406711;32;20121;-65
2022/09/10 12:29:25;;;;;;;9.52;4.37;;;;;;;;;;4407196;32;20048;-66
2022/09/10 12:32:10;;;;;;;7.10;4.53;;;;;;;;;;4406292;32;20083;-64
2022/09/10 12:34:36;;;;;;;5.28;4.07;;;;;;;;;;4392432;32;20426;-63
2022/09/10 12:37:01;;;;;;;8.10;4.78;;;;;;;;;;4406360;32;20022;-64
2022/09/10 12:39:26;;;;;;;9.93;5.10;;;;;;;;;;4403060;32;20073;-64
2022/09/10 12:41:52;;;;;;;6.55;4.22;;;;;;;;;;4391416;32;20149;-63
2022/09/10 12:44:36;;;;;;;11.63;4.70;;;;;;;;;;4378129;32;20034;-64
2022/09/10 12:47:24;;;;;;;7.00;4.55;;;;;;;;;;4391552;32;20330;-64
2022/09/10 12:49:58;;;;;;;11.05;6.62;;;;;;;;;;4385838;32;20026;-65
2022/09/10 12:52:30;;;;;;;8.32;4.50;;;;;;;;;;4376856;32;20027;-63
2022/09/10 12:55:01;;;;;;;7.50;4.55;;;;;;;;;;4389742;32;20220;-64
2022/09/10 12:57:32;;;;;;;6.05;4.45;;;;;;;;;;4390257;32;20027;-64
2022/09/10 13:00:00;;;;;;;5.60;3.90;;;;;;;;;;4390180;32;20030;-65
2022/09/10 13:02:27;;;;;;;7.85;3.83;;;;;;;;;;4389602;32;20210;-65
2022/09/10 13:04:56;;;;;;;5.12;3.35;;;;;;;;;;4389952;32;20023;-64
2022/09/10 13:07:24;;;;;;;8.90;3.67;;;;;;;;;;4376012;32;20405;-64
2022/09/10 13:10:14;;;;;;;6.60;3.80;;;;;;;;;;4396142;32;20023;-65
2022/09/10 13:12:40;;;;;;;6.00;3.83;;;;;;;;;;4405459;32;20425;-64
2022/09/10 13:15:06;;;;;;;6.28;4.60;;;;;;;;;;4404822;32;20070;-64
2022/09/10 13:17:39;;;;;;;5.30;3.83;;;;;;;;;;4391442;32;20021;-64
2022/09/10 13:20:30;;;;;;;7.00;3.78;;;;;;;;;;4404993;32;20030;-65
2022/09/10 13:23:06;;;;;;;8.65;4.55;;;;;;;;;;4402003;32;20126;-64
2022/09/10 13:25:38;;;;;;;5.97;3.95;;;;;;;;;;4390712;32;20022;-64
2022/09/10 13:28:24;;;;;;;9.60;4.10;;;;;;;;;;4388334;32;20080;-65
2022/09/10 13:30:57;;;;;;;8.27;3.87;;;;;;;;;;4389798;32;20109;-65
2022/09/10 13:33:23;;;;;;;5.15;3.15;;;;;;;;;;4391327;32;20059;-64
2022/09/10 13:36:00;;;;;;;7.97;3.12;;;;;;;;;;4390696;32;20046;-64
2022/09/10 13:38:39;;;;;;;4.35;2.40;;;;;;;;;;4375604;32;20093;-65
2022/09/10 13:41:17;;;;;;;5.72;2.67;;;;;;;;;;4391403;32;20042;-65
2022/09/10 13:43:46;;;;;;;5.47;2.25;;;;;;;;;;4392873;32;20076;-64
2022/09/10 13:46:34;;;;;;;4.87;2.28;;;;;;;;;;4378883;32;20022;-64
2022/09/10 13:49:05;;;;;;;3.80;2.35;;;;;;;;;;4386830;32;20158;-64
2022/09/10 13:51:37;;;;;;;6.00;2.47;;;;;;;;;;4378673;32;20473;-64
2022/09/10 13:54:25;;;;;;;6.82;2.20;;;;;;;;;;4378889;32;20047;-64
2022/09/10 13:56:51;;;;;;;4.15;2.03;;;;;;;;;;4392681;32;20333;-63
2022/09/10 13:59:22;;;;;;;6.20;2.67;;;;;;;;;;4394515;32;20089;-65
2022/09/10 14:01:51;;;;;;;7.10;2.20;;;;;;;;;;4378844;32;20034;-65
2022/09/10 14:04:23;;;;;;;3.90;2.30;;;;;;;;;;4378408;32;20042;-65
2022/09/10 14:06:49;;;;;;;5.93;2.60;;;;;;;;;;4378284;32;20072;-65
2022/09/10 14:09:14;;;;;;;4.20;2.15;;;;;;;;;;4400471;32;20046;-64
2022/09/10 14:11:40;;;;;;;5.07;1.90;;;;;;;;;;4407806;32;20030;-64
2022/09/10 14:14:09;;;;;;;5.80;2.15;;;;;;;;;;4393252;32;20426;-65
2022/09/10 14:16:37;;;;;;;3.10;2.22;;;;;;;;;;4409246;32;20031;-64
2022/09/10 14:19:04;;;;;;;3.00;1.87;;;;;;;;;;4408731;32;20026;-65
2022/09/10 14:21:30;;;;;;;4.30;1.85;;;;;;;;;;4407969;32;20380;-65
2022/09/10 14:23:57;;;;;;;4.22;2.28;;;;;;;;;;4407879;32;20560;-65
2022/09/10 14:26:25;;;;;;;4.25;1.98;;;;;;;;;;4407796;32;20030;-67
2022/09/10 14:28:51;;;;;;;3.92;2.08;;;;;;;;;;4393299;32;20022;-65
2022/09/10 14:31:19;;;;;;;4.72;2.60;;;;;;;;;;4408530;32;20049;-65
2022/09/10 14:33:44;;;;;;;6.20;2.75;;;;;;;;;;4407201;32;20064;-64
2022/09/10 14:36:20;;;;;;;5.22;2.28;;;;;;;;;;4407590;32;20027;-64
2022/09/10 14:38:53;;;;;;;5.03;2.05;;;;;;;;;;4401964;32;20413;-64